Bearskin Lake, Canada
Current Conditions -  °F | °C
As of 3:00 AM on Thursday 27 Nov 2014 (Local Time) from CYTL Reporting Station
Clear Clear  
Wind Chill: -38°   Ceiling: Unl
Heat Index: -29°   Visibility: 9mi
Dew Point: -32°   Wind: 7mph
Humidity: 76%   Direction: 250°WSW
Pressure: 30.35"   Gusts: NA
Location:  53.93°N, 90.98°W
Report Text: CYTL 270900Z AUTO 25006KT 9SM CLR M29/M32 A3035 RMK SLP310
Loading
Personal Weather Stations






























Interactive Weather Map New forecast layout! Learn more

10-Day Weather Forecast

Advertisements
Track Severe Weather on mobile